createdAt,value
2023-02-11T00:00:40.740Z,1033.8
2023-02-11T00:06:46.254Z,1033.9
2023-02-11T00:12:51.817Z,1033.8
2023-02-11T00:18:57.794Z,1033.9
2023-02-11T00:25:03.783Z,1033.9
2023-02-11T00:31:09.503Z,1033.9
2023-02-11T00:37:15.933Z,1033.8
2023-02-11T00:43:21.283Z,1033.8
2023-02-11T00:49:27.275Z,1033.7
2023-02-11T00:55:32.850Z,1033.7
2023-02-11T01:01:38.312Z,1033.6
2023-02-11T01:07:44.692Z,1033.6
2023-02-11T01:13:50.285Z,1033.6
2023-02-11T01:19:56.038Z,1033.6
2023-02-11T01:26:02.004Z,1033.6
2023-02-11T01:32:07.768Z,1033.6
2023-02-11T01:38:13.905Z,1033.5
2023-02-11T01:44:19.887Z,1033.5
2023-02-11T01:50:25.654Z,1033.4
2023-02-11T01:56:31.637Z,1033.5
2023-02-11T02:02:37.830Z,1033.5
2023-02-11T02:08:43.607Z,1033.5
2023-02-11T02:14:48.958Z,1033.5
2023-02-11T02:20:54.751Z,1033.3
2023-02-11T02:27:00.319Z,1033.2
2023-02-11T02:33:23.464Z,1033.1
2023-02-11T02:39:29.883Z,1033.1
2023-02-11T02:45:36.071Z,1033
2023-02-11T02:51:41.854Z,1033
2023-02-11T02:57:47.212Z,1032.9
2023-02-11T03:03:53.061Z,1032.9
2023-02-11T03:09:58.967Z,1032.8
2023-02-11T03:16:05.815Z,1032.8
2023-02-11T03:22:11.465Z,1032.7
2023-02-11T03:28:17.833Z,1032.6
2023-02-11T03:34:23.733Z,1032.5
2023-02-11T03:40:29.512Z,1032.5
2023-02-11T03:46:35.276Z,1032.4
2023-02-11T03:52:41.060Z,1032.6
2023-02-11T03:58:47.036Z,1032.4
2023-02-11T04:04:52.810Z,1032.6
2023-02-11T04:10:58.894Z,1032.6
2023-02-11T04:17:04.573Z,1032.6
2023-02-11T04:23:10.599Z,1032.6
2023-02-11T04:29:16.637Z,1032.7
2023-02-11T04:35:22.393Z,1032.8
2023-02-11T04:41:28.144Z,1032.8
2023-02-11T04:47:33.736Z,1032.8
2023-02-11T04:53:39.318Z,1032.9
2023-02-11T04:59:44.871Z,1033
2023-02-11T05:05:51.305Z,1033.1
2023-02-11T05:11:57.585Z,1033.1
2023-02-11T05:18:03.555Z,1033.1
2023-02-11T05:24:10.378Z,1033
2023-02-11T05:30:16.135Z,1032.9
2023-02-11T05:36:22.306Z,1033
2023-02-11T05:42:27.767Z,1032.8
2023-02-11T05:48:33.248Z,1032.8
2023-02-11T05:54:38.425Z,1032.7
2023-02-11T06:00:43.815Z,1032.7
2023-02-11T06:06:49.566Z,1032.7
2023-02-11T06:12:55.595Z,1032.7
2023-02-11T06:19:01.109Z,1032.6
2023-02-11T06:25:06.882Z,1032.7
2023-02-11T06:31:12.341Z,1032.6
2023-02-11T06:37:18.659Z,1032.7
2023-02-11T06:43:24.634Z,1032.8
2023-02-11T06:49:30.625Z,1032.8
2023-02-11T06:55:36.397Z,1032.7
2023-02-11T07:01:42.039Z,1032.7
2023-02-11T07:07:47.632Z,1032.8
2023-02-11T07:13:53.101Z,1032.9
2023-02-11T07:19:59.120Z,1032.9
2023-02-11T07:26:05.069Z,1032.9
2023-02-11T07:32:11.474Z,1032.8
2023-02-11T07:38:17.630Z,1032.7
2023-02-11T07:44:23.406Z,1032.6
2023-02-11T07:50:29.183Z,1032.8
2023-02-11T07:56:34.968Z,1032.8
2023-02-11T08:02:40.356Z,1032.8
2023-02-11T08:08:45.530Z,1032.7
2023-02-11T08:14:51.283Z,1032.5
2023-02-11T08:20:57.263Z,1032.5
2023-02-11T08:27:03.239Z,1032.4
2023-02-11T08:33:09.010Z,1032.4
2023-02-11T08:39:21.215Z,1032.5
2023-02-11T08:45:26.911Z,1032.4
2023-02-11T08:51:32.913Z,1032.7
2023-02-11T08:57:38.375Z,1032.8
2023-02-11T09:03:44.344Z,1032.7
2023-02-11T09:09:50.077Z,1032.5
2023-02-11T09:15:56.056Z,1032.5
2023-02-11T09:22:01.986Z,1032.5
2023-02-11T09:28:07.777Z,1032.6
2023-02-11T09:34:13.935Z,1032.5
2023-02-11T09:40:20.735Z,1032.5
2023-02-11T09:46:26.618Z,1032.5
2023-02-11T09:52:32.385Z,1032.5
2023-02-11T09:58:38.304Z,1032.6
2023-02-11T10:04:44.083Z,1032.4
2023-02-11T10:10:50.317Z,1032.3
2023-02-11T10:16:56.836Z,1032.3
2023-02-11T10:23:02.286Z,1032.2
2023-02-11T10:29:07.987Z,1032.1
2023-02-11T10:35:14.369Z,1032.1
2023-02-11T10:41:19.531Z,1032.1
2023-02-11T10:47:24.991Z,1032.1
2023-02-11T10:53:31.099Z,1032
2023-02-11T10:59:37.074Z,1032
2023-02-11T11:05:43.059Z,1032.1
2023-02-11T11:11:49.039Z,1031.9
2023-02-11T11:18:01.917Z,1031.9
2023-02-11T11:24:28.238Z,1031.8
2023-02-11T11:30:33.910Z,1031.8
2023-02-11T11:36:40.388Z,1031.8
2023-02-11T11:42:46.250Z,1031.7
2023-02-11T11:48:52.045Z,1031.6
2023-02-11T11:54:57.597Z,1031.6
2023-02-11T12:01:03.284Z,1031.9
2023-02-11T12:07:09.090Z,1031.8
2023-02-11T12:13:15.060Z,1031.7
2023-02-11T12:19:21.253Z,1031.6
2023-02-11T12:25:27.218Z,1031.6
2023-02-11T12:31:33.476Z,1031.6
2023-02-11T12:37:39.606Z,1031.5
2023-02-11T12:43:45.377Z,1031.4
2023-02-11T12:49:52.198Z,1031.3
2023-02-11T12:55:57.757Z,1031.4
2023-02-11T13:02:04.029Z,1031.3
2023-02-11T13:08:09.908Z,1031.3
2023-02-11T13:14:16.113Z,1031.2
2023-02-11T13:20:21.883Z,1031.1
2023-02-11T13:26:27.875Z,1031
2023-02-11T13:32:34.063Z,1031
2023-02-11T13:38:39.924Z,1031
2023-02-11T13:44:46.076Z,1030.9
2023-02-11T13:50:52.508Z,1030.9
2023-02-11T13:56:58.265Z,1031
2023-02-11T14:03:04.037Z,1031
2023-02-11T14:09:10.085Z,1030.9
2023-02-11T14:15:16.102Z,1030.9
2023-02-11T14:21:21.986Z,1030.9
2023-02-11T14:27:28.091Z,1030.8
2023-02-11T14:33:34.066Z,1030.9
2023-02-11T14:39:40.666Z,1031
2023-02-11T14:45:46.757Z,1031.1
2023-02-11T14:51:52.819Z,1031.1
2023-02-11T14:57:59.212Z,1031
2023-02-11T15:04:05.007Z,1031.1
2023-02-11T15:10:10.797Z,1031.2
2023-02-11T15:16:16.999Z,1031.2
2023-02-11T15:22:23.151Z,1031.1
2023-02-11T15:28:29.249Z,1031.1
2023-02-11T15:34:35.733Z,1031.2
2023-02-11T15:40:41.702Z,1031.2
2023-02-11T15:46:47.948Z,1031.4
2023-02-11T15:52:54.078Z,1031.3
2023-02-11T15:58:59.451Z,1031.4
2023-02-11T16:05:05.628Z,1031.3
2023-02-11T16:11:11.416Z,1031.3
2023-02-11T16:17:17.180Z,1031.4
2023-02-11T16:23:23.360Z,1031.5
2023-02-11T16:29:29.815Z,1031.6
2023-02-11T16:35:35.729Z,1031.7
2023-02-11T16:41:41.394Z,1031.8
2023-02-11T16:47:47.691Z,1031.7
2023-02-11T16:53:53.500Z,1031.9
2023-02-11T16:59:59.467Z,1031.9
2023-02-11T17:06:05.848Z,1031.9
2023-02-11T17:12:12.043Z,1032
2023-02-11T17:18:17.499Z,1032
2023-02-11T17:24:23.394Z,1032.2
2023-02-11T17:30:29.159Z,1032.4
2023-02-11T17:36:34.945Z,1032.4
2023-02-11T17:42:40.915Z,1032.5
2023-02-11T17:48:46.264Z,1032.6
2023-02-11T17:54:52.145Z,1032.6
2023-02-11T18:00:58.532Z,1032.6
2023-02-11T18:07:04.623Z,1032.6
2023-02-11T18:13:10.671Z,1032.6
2023-02-11T18:19:16.798Z,1032.7
2023-02-11T18:25:22.371Z,1032.7
2023-02-11T18:31:28.607Z,1032.8
2023-02-11T18:37:34.539Z,1032.7
2023-02-11T18:43:40.528Z,1032.7
2023-02-11T18:49:45.917Z,1032.9
2023-02-11T18:55:53.015Z,1032.8
2023-02-11T19:01:59.950Z,1032.8
2023-02-11T19:08:05.266Z,1032.9
2023-02-11T19:14:11.653Z,1032.9
2023-02-11T19:20:17.855Z,1032.8
2023-02-11T19:26:24.057Z,1032.8
2023-02-11T19:32:30.108Z,1032.7
2023-02-11T19:38:36.196Z,1032.8
2023-02-11T19:44:41.764Z,1032.8
2023-02-11T19:50:47.759Z,1032.7
2023-02-11T19:56:53.936Z,1032.7
2023-02-11T20:03:00.219Z,1032.7
2023-02-11T20:09:06.524Z,1032.6
2023-02-11T20:15:12.282Z,1032.8
2023-02-11T20:21:17.732Z,1032.8
2023-02-11T20:27:23.694Z,1032.8
2023-02-11T20:33:29.685Z,1032.9
2023-02-11T20:39:35.266Z,1033
2023-02-11T20:45:41.368Z,1033
2023-02-11T20:51:47.546Z,1033.1
2023-02-11T20:57:52.930Z,1033.1
2023-02-11T21:03:58.697Z,1033.1
2023-02-11T21:10:04.893Z,1033.1
2023-02-11T21:16:10.765Z,1033.1
2023-02-11T21:22:17.667Z,1033.1
2023-02-11T21:28:23.698Z,1033.2
2023-02-11T21:34:30.049Z,1033.2
2023-02-11T21:40:35.419Z,1033.2
2023-02-11T21:46:41.413Z,1033.1
2023-02-11T21:52:46.622Z,1033.1
2023-02-11T21:58:52.341Z,1033
2023-02-11T22:04:58.152Z,1032.9
2023-02-11T22:11:03.751Z,1033
2023-02-11T22:17:09.625Z,1033
2023-02-11T22:23:15.556Z,1033
2023-02-11T22:29:21.291Z,1033
2023-02-11T22:35:27.295Z,1033
2023-02-11T22:41:33.057Z,1033.1
2023-02-11T22:47:38.759Z,1033.1
2023-02-11T22:53:44.654Z,1033.1
2023-02-11T22:59:50.500Z,1033.2
2023-02-11T23:05:56.521Z,1033.3
2023-02-11T23:12:03.087Z,1033.4
2023-02-11T23:18:08.453Z,1033.5
2023-02-11T23:24:14.633Z,1033.4
2023-02-11T23:30:21.231Z,1033.5
2023-02-11T23:36:27.426Z,1033.4
2023-02-11T23:42:32.792Z,1033.5
2023-02-11T23:48:38.786Z,1033.4
2023-02-11T23:54:44.555Z,1033.5
